Time;durP1;ratioP1;P1;durP2;ratioP2;P2;SDS_P1;SDS_P2;PMS_P1;PMS_P2;Temp;Humidity;BMP_temperature;BMP_pressure;BME280_temperature;BME280_humidity;BME280_pressure;Samples;Min_cycle;Max_cycle;Signal;HPM_P1;HPM_P2
2022/01/07 00:01:35;;;;;;;3.17;1.63;;;10.40;82.80;;;;;;5114996;28;20445;-62
2022/01/07 00:04:02;;;;;;;2.55;2.05;;;10.40;82.80;;;;;;5115368;28;20043;-65
2022/01/07 00:06:28;;;;;;;3.47;2.08;;;10.40;82.80;;;;;;5115162;28;20143;-64
2022/01/07 00:08:53;;;;;;;3.33;1.98;;;10.40;82.80;;;;;;5115513;28;20506;-60
2022/01/07 00:11:19;;;;;;;2.75;1.80;;;10.40;82.70;;;;;;5115376;28;20043;-67
2022/01/07 00:13:45;;;;;;;2.58;1.85;;;10.40;82.80;;;;;;5115048;28;20131;-65
2022/01/07 00:16:11;;;;;;;3.40;1.70;;;10.40;82.80;;;;;;5115657;28;20089;-63
2022/01/07 00:18:40;;;;;;;2.08;1.60;;;10.40;82.80;;;;;;5115093;28;20047;-67
2022/01/07 00:21:05;;;;;;;2.60;1.90;;;10.40;82.80;;;;;;5114865;28;20032;-67
2022/01/07 00:23:31;;;;;;;4.07;2.10;;;10.40;82.80;;;;;;5114720;28;20050;-67
2022/01/07 00:25:57;;;;;;;3.17;1.88;;;10.40;82.70;;;;;;5114720;28;20039;-64
2022/01/07 00:28:23;;;;;;;3.15;1.60;;;10.40;82.70;;;;;;5114617;28;20035;-67
2022/01/07 00:30:49;;;;;;;3.10;1.98;;;10.40;82.80;;;;;;5114979;28;20044;-63
2022/01/07 00:33:15;;;;;;;2.25;1.73;;;10.40;82.70;;;;;;5115063;28;20040;-67
2022/01/07 00:35:41;;;;;;;2.95;1.77;;;10.40;82.70;;;;;;5114401;28;20475;-65
2022/01/07 00:38:06;;;;;;;2.65;1.70;;;10.40;82.70;;;;;;5114235;28;20113;-63
2022/01/07 00:40:32;;;;;;;2.97;1.70;;;10.40;82.70;;;;;;5114942;28;20470;-62
2022/01/07 00:42:59;;;;;;;3.05;1.88;;;10.40;82.80;;;;;;5114632;28;20060;-57
2022/01/07 00:45:25;;;;;;;2.70;2.05;;;10.40;82.80;;;;;;5114596;28;20040;-59
2022/01/07 00:47:52;;;;;;;2.92;1.90;;;10.40;82.70;;;;;;5114561;28;20044;-65
2022/01/07 00:50:21;;;;;;;2.28;1.65;;;10.40;82.80;;;;;;5114282;28;20036;-60
2022/01/07 00:52:48;;;;;;;4.07;2.03;;;10.40;82.80;;;;;;5113410;28;20043;-66
2022/01/07 00:55:14;;;;;;;3.00;1.83;;;10.40;82.80;;;;;;5114336;28;20046;-63
2022/01/07 00:57:40;;;;;;;2.78;1.77;;;10.40;82.80;;;;;;5113998;28;20051;-65
2022/01/07 01:00:10;;;;;;;2.20;1.73;;;10.40;82.80;;;;;;5114198;28;20035;-58
2022/01/07 01:02:36;;;;;;;3.22;2.05;;;10.40;82.80;;;;;;5114511;28;20032;-61
2022/01/07 01:05:02;;;;;;;3.20;1.60;;;10.40;82.80;;;;;;5114641;28;20047;-63
2022/01/07 01:07:29;;;;;;;2.75;1.67;;;10.40;82.80;;;;;;5095605;28;20053;-66
2022/01/07 01:09:55;;;;;;;2.17;1.70;;;10.40;82.80;;;;;;5113803;28;20145;-62
2022/01/07 01:12:20;;;;;;;2.75;1.83;;;10.40;82.80;;;;;;5114262;28;20395;-67
2022/01/07 01:14:46;;;;;;;4.30;2.15;;;10.40;82.80;;;;;;5113978;28;20111;-65
2022/01/07 01:17:12;;;;;;;4.22;2.20;;;10.40;82.80;;;;;;5094708;28;20097;-66
2022/01/07 01:19:38;;;;;;;1.98;1.67;;;10.40;82.80;;;;;;5095968;28;20039;-64
2022/01/07 01:22:04;;;;;;;3.20;1.63;;;10.40;82.80;;;;;;5095942;28;20096;-65
2022/01/07 01:24:30;;;;;;;3.72;1.80;;;10.40;82.80;;;;;;5113866;28;20119;-64
2022/01/07 01:26:56;;;;;;;2.20;1.70;;;10.40;82.80;;;;;;5113620;28;20077;-66
2022/01/07 01:29:22;;;;;;;2.25;1.70;;;10.40;82.80;;;;;;5113373;28;20676;-64
2022/01/07 01:31:49;;;;;;;1.73;1.40;;;10.30;82.80;;;;;;5094942;28;20130;-62
2022/01/07 01:34:15;;;;;;;2.30;1.80;;;10.40;82.80;;;;;;5113701;28;20603;-66
2022/01/07 01:36:41;;;;;;;3.25;1.88;;;10.40;82.80;;;;;;5113995;28;20055;-57
2022/01/07 01:39:08;;;;;;;2.40;1.88;;;10.40;82.80;;;;;;5113424;28;20040;-66
2022/01/07 01:41:33;;;;;;;2.55;1.95;;;10.40;82.80;;;;;;5113304;28;20048;-64
2022/01/07 01:43:59;;;;;;;2.35;1.70;;;10.40;82.80;;;;;;5113634;28;20050;-66
2022/01/07 01:46:25;;;;;;;2.50;1.77;;;10.40;82.80;;;;;;5113738;28;20063;-62
2022/01/07 01:48:51;;;;;;;2.10;1.50;;;10.40;82.80;;;;;;5094836;28;20052;-66
2022/01/07 01:51:17;;;;;;;2.25;1.95;;;10.40;82.80;;;;;;5113769;28;20032;-63
2022/01/07 01:53:43;;;;;;;2.80;1.83;;;10.30;82.80;;;;;;5113595;28;20598;-62
2022/01/07 01:56:09;;;;;;;2.35;1.65;;;10.40;82.80;;;;;;5113278;28;20422;-64
2022/01/07 01:58:35;;;;;;;2.03;1.60;;;10.40;82.80;;;;;;5112503;28;20051;-64
2022/01/07 02:01:01;;;;;;;2.67;1.60;;;10.40;82.80;;;;;;5112622;28;20043;-62
2022/01/07 02:03:26;;;;;;;2.60;1.90;;;10.40;82.80;;;;;;5112836;28;20040;-65
2022/01/07 02:05:52;;;;;;;2.88;1.90;;;10.40;82.80;;;;;;5113304;28;20046;-66
2022/01/07 02:08:18;;;;;;;3.00;1.95;;;10.30;82.80;;;;;;5113317;28;20043;-66
2022/01/07 02:10:43;;;;;;;3.05;1.80;;;10.40;82.80;;;;;;5113374;28;20081;-66
2022/01/07 02:13:09;;;;;;;2.30;2.00;;;10.40;82.80;;;;;;5112805;28;20051;-62
2022/01/07 02:15:37;;;;;;;3.60;1.80;;;10.40;82.80;;;;;;5113250;28;20040;-66
2022/01/07 02:18:03;;;;;;;3.00;1.98;;;10.40;82.80;;;;;;5094285;28;20055;-66
2022/01/07 02:20:29;;;;;;;2.05;1.63;;;10.30;82.70;;;;;;5112851;28;20039;-58
2022/01/07 02:22:57;;;;;;;2.55;1.73;;;10.30;82.70;;;;;;5113145;28;20403;-65
2022/01/07 02:25:23;;;;;;;2.60;1.67;;;10.40;82.80;;;;;;5112957;28;20039;-64
2022/01/07 02:27:49;;;;;;;2.33;1.70;;;10.30;82.70;;;;;;5113119;28;20055;-64
2022/01/07 02:30:18;;;;;;;3.40;2.00;;;10.40;82.80;;;;;;5116109;28;20028;-63
2022/01/07 02:32:44;;;;;;;3.13;1.90;;;10.40;82.80;;;;;;5117015;28;20569;-62
2022/01/07 02:35:11;;;;;;;2.25;1.70;;;10.30;82.80;;;;;;5116790;28;20079;-64
2022/01/07 02:37:37;;;;;;;2.13;1.92;;;10.30;82.80;;;;;;5116321;28;20036;-58
2022/01/07 02:40:05;;;;;;;2.38;1.77;;;10.30;82.80;;;;;;5117202;28;20036;-58
2022/01/07 02:42:31;;;;;;;2.30;2.00;;;10.30;82.70;;;;;;5116845;28;20418;-67
2022/01/07 02:44:57;;;;;;;3.10;1.80;;;10.30;82.80;;;;;;5116621;28;20047;-61
2022/01/07 02:47:23;;;;;;;3.22;1.92;;;10.30;82.70;;;;;;5117049;28;20110;-64
2022/01/07 02:49:49;;;;;;;3.20;1.80;;;10.40;82.80;;;;;;5117200;28;20126;-61
2022/01/07 02:52:15;;;;;;;2.47;1.90;;;10.40;82.80;;;;;;5116037;28;20086;-60
2022/01/07 02:54:41;;;;;;;2.78;2.03;;;10.30;82.80;;;;;;5116080;28;20036;-63
2022/01/07 02:57:07;;;;;;;2.15;1.80;;;10.40;82.80;;;;;;5115350;28;20036;-65
2022/01/07 02:59:33;;;;;;;2.05;1.58;;;10.40;82.80;;;;;;5115685;28;20044;-65
2022/01/07 03:01:58;;;;;;;2.67;2.00;;;10.30;82.80;;;;;;5115322;28;20148;-57
2022/01/07 03:04:26;;;;;;;2.15;1.75;;;10.30;82.70;;;;;;5116269;28;20399;-66
2022/01/07 03:06:52;;;;;;;1.95;1.80;;;10.30;82.80;;;;;;5116265;28;20547;-66
2022/01/07 03:09:18;;;;;;;2.05;1.83;;;10.40;82.80;;;;;;5116865;28;20126;-67
2022/01/07 03:11:44;;;;;;;2.05;1.65;;;10.30;82.80;;;;;;5116749;28;20035;-63
2022/01/07 03:14:10;;;;;;;2.38;2.00;;;10.40;82.80;;;;;;5116176;28;20047;-66
2022/01/07 03:16:38;;;;;;;2.53;1.80;;;10.40;83.50;;;;;;5115787;28;20092;-66
2022/01/07 03:19:04;;;;;;;2.13;1.92;;;10.30;82.70;;;;;;5120776;27;20050;-67
2022/01/07 03:21:30;;;;;;;2.85;2.10;;;10.40;82.80;;;;;;5137031;27;20501;-63
2022/01/07 03:23:55;;;;;;;2.63;2.10;;;10.30;82.80;;;;;;5125545;27;20088;-66
2022/01/07 03:26:21;;;;;;;2.33;1.58;;;10.30;82.80;;;;;;5116281;28;20368;-62
2022/01/07 03:28:47;;;;;;;1.95;1.52;;;10.30;82.80;;;;;;5116555;28;20500;-67
2022/01/07 03:31:13;;;;;;;4.05;2.30;;;10.40;82.80;;;;;;5116033;28;20389;-67
2022/01/07 03:33:39;;;;;;;2.55;2.00;;;10.30;82.70;;;;;;5115434;28;20043;-65
2022/01/07 03:36:04;;;;;;;2.30;2.00;;;10.40;82.80;;;;;;5116144;28;20116;-67
2022/01/07 03:38:30;;;;;;;2.40;1.70;;;10.30;82.80;;;;;;5115849;28;20490;-67
2022/01/07 03:40:56;;;;;;;2.08;1.85;;;10.30;82.80;;;;;;5114866;28;20060;-67
2022/01/07 03:43:22;;;;;;;3.15;2.00;;;10.30;82.80;;;;;;5115677;28;20458;-62
2022/01/07 03:45:48;;;;;;;2.55;1.88;;;10.30;82.70;;;;;;5115614;28;20044;-64
2022/01/07 03:48:14;;;;;;;2.30;1.75;;;10.30;82.80;;;;;;5115410;28;20523;-67
2022/01/07 03:50:39;;;;;;;2.38;1.80;;;10.30;82.80;;;;;;5116068;28;20054;-67
2022/01/07 03:53:05;;;;;;;2.67;2.05;;;10.30;82.70;;;;;;5116021;28;20489;-64
2022/01/07 03:55:32;;;;;;;2.55;1.92;;;10.30;82.80;;;;;;5115705;28;20498;-67
2022/01/07 03:57:59;;;;;;;2.45;2.03;;;10.30;82.80;;;;;;5115688;28;20127;-66
2022/01/07 04:00:33;;;;;;;1.90;1.75;;;10.30;82.80;;;;;;5115806;28;20046;-65
2022/01/07 04:03:05;;;;;;;2.75;2.05;;;10.30;82.80;;;;;;5115287;28;20480;-66
2022/01/07 04:05:31;;;;;;;3.05;2.30;;;10.40;82.80;;;;;;5114927;28;20035;-60
2022/01/07 04:07:56;;;;;;;1.88;1.70;;;10.30;82.80;;;;;;5114847;28;20123;-64
2022/01/07 04:10:22;;;;;;;1.90;1.67;;;10.30;82.80;;;;;;5097072;28;20052;-65
2022/01/07 04:12:48;;;;;;;1.73;1.63;;;10.30;82.80;;;;;;5131565;27;20138;-61
2022/01/07 04:15:16;;;;;;;2.25;1.70;;;10.30;82.80;;;;;;5115327;28;20475;-66
2022/01/07 04:17:47;;;;;;;2.88;1.83;;;10.30;82.80;;;;;;5115170;28;20073;-67
2022/01/07 04:20:15;;;;;;;2.28;2.03;;;10.30;82.80;;;;;;5096275;28;20051;-61
2022/01/07 04:22:42;;;;;;;2.03;1.83;;;10.30;82.80;;;;;;5113887;28;20040;-55
2022/01/07 04:25:12;;;;;;;2.90;2.00;;;10.30;82.80;;;;;;5131318;27;20494;-59
2022/01/07 04:27:38;;;;;;;2.47;1.80;;;10.30;82.80;;;;;;5132394;27;20039;-66
2022/01/07 04:30:05;;;;;;;1.88;1.75;;;10.30;82.80;;;;;;5115498;28;20044;-65
2022/01/07 04:32:31;;;;;;;1.90;1.70;;;10.30;82.80;;;;;;5114681;28;20046;-58
2022/01/07 04:34:57;;;;;;;3.70;2.30;;;10.30;82.80;;;;;;5114955;28;20511;-63
2022/01/07 04:37:23;;;;;;;3.13;1.90;;;10.30;82.80;;;;;;5113753;28;20043;-66
2022/01/07 04:39:48;;;;;;;2.10;1.92;;;10.30;82.80;;;;;;5114791;28;20071;-64
2022/01/07 04:42:14;;;;;;;2.15;1.80;;;10.30;82.80;;;;;;5114650;28;20047;-63
2022/01/07 04:44:42;;;;;;;2.15;1.95;;;10.30;82.90;;;;;;5114723;28;20510;-63
2022/01/07 04:47:09;;;;;;;2.03;1.80;;;10.30;82.80;;;;;;5114995;28;20058;-66
2022/01/07 04:49:36;;;;;;;2.67;2.03;;;10.30;82.80;;;;;;5114537;28;20087;-65
2022/01/07 04:52:04;;;;;;;2.60;2.05;;;10.30;82.80;;;;;;5113503;28;20054;-65
2022/01/07 04:54:31;;;;;;;3.05;1.85;;;10.30;82.80;;;;;;5114587;28;20043;-67
2022/01/07 04:56:57;;;;;;;1.60;1.48;;;10.30;83.50;;;;;;5114540;28;20036;-66
2022/01/07 04:59:23;;;;;;;2.00;1.75;;;10.30;82.80;;;;;;5114596;28;20063;-63
2022/01/07 05:01:48;;;;;;;1.88;1.77;;;10.30;82.90;;;;;;5114003;28;20102;-64
2022/01/07 05:04:14;;;;;;;1.70;1.60;;;10.30;82.80;;;;;;5114386;28;20050;-62
2022/01/07 05:09:05;;;;;;;2.08;1.88;;;10.40;82.90;;;;;;5113234;28;20126;-62
2022/01/07 05:11:31;;;;;;;2.03;1.83;;;10.30;82.80;;;;;;5113595;28;20125;-65
2022/01/07 05:13:57;;;;;;;2.75;1.85;;;10.30;82.80;;;;;;5114534;28;20039;-66
2022/01/07 05:16:24;;;;;;;2.03;1.83;;;10.30;82.80;;;;;;5113907;28;20084;-62
2022/01/07 05:18:49;;;;;;;2.38;1.75;;;10.30;82.80;;;;;;5114015;28;20055;-66
2022/01/07 05:21:15;;;;;;;2.90;1.90;;;10.30;82.80;;;;;;5114112;28;20039;-63
2022/01/07 05:23:40;;;;;;;2.08;1.88;;;10.30;82.80;;;;;;5113637;28;20067;-66
2022/01/07 05:26:07;;;;;;;2.03;1.65;;;10.30;82.80;;;;;;5113635;28;20039;-62
2022/01/07 05:28:34;;;;;;;2.00;1.80;;;10.30;82.80;;;;;;5113718;28;20104;-61
2022/01/07 05:31:00;;;;;;;2.83;1.88;;;10.30;82.80;;;;;;5113794;28;20127;-66
2022/01/07 05:33:25;;;;;;;2.00;1.80;;;10.30;82.80;;;;;;5096315;28;20119;-58
2022/01/07 05:35:51;;;;;;;1.98;1.52;;;10.30;82.80;;;;;;5114120;28;20046;-63
2022/01/07 05:38:17;;;;;;;2.53;2.00;;;10.30;82.80;;;;;;5095052;28;20411;-59
2022/01/07 05:40:43;;;;;;;2.55;2.10;;;10.30;83.50;;;;;;5128987;27;20083;-64
2022/01/07 05:43:09;;;;;;;1.80;1.63;;;10.30;82.90;;;;;;5113447;28;20181;-66
2022/01/07 05:45:35;;;;;;;2.50;1.80;;;10.30;82.80;;;;;;5113455;28;20043;-62
2022/01/07 05:48:01;;;;;;;2.40;2.03;;;10.30;82.80;;;;;;5113599;28;20047;-67
2022/01/07 05:50:27;;;;;;;3.00;2.00;;;10.30;82.80;;;;;;5113749;28;20044;-60
2022/01/07 05:52:53;;;;;;;1.67;1.58;;;10.20;82.80;;;;;;5113289;28;20042;-56
2022/01/07 05:55:18;;;;;;;2.20;2.00;;;10.30;82.80;;;;;;5113666;28;20077;-64
2022/01/07 05:57:44;;;;;;;1.75;1.60;;;10.30;82.90;;;;;;5112801;28;20092;-64
2022/01/07 06:00:11;;;;;;;2.50;1.90;;;10.30;82.90;;;;;;5113647;28;20407;-65
2022/01/07 06:02:37;;;;;;;2.20;2.00;;;10.30;82.90;;;;;;5113112;28;20115;-64
2022/01/07 06:05:03;;;;;;;2.08;1.88;;;10.30;82.90;;;;;;5112886;28;20484;-65
2022/01/07 06:07:28;;;;;;;2.10;1.70;;;10.30;82.80;;;;;;5094740;28;20499;-66
2022/01/07 06:09:54;;;;;;;2.75;2.00;;;10.30;82.90;;;;;;5112448;28;20487;-60
2022/01/07 06:12:20;;;;;;;1.98;1.73;;;10.30;82.90;;;;;;5111845;28;20479;-61
2022/01/07 06:14:45;;;;;;;2.15;1.85;;;10.30;82.90;;;;;;5112565;28;20047;-65
2022/01/07 06:17:12;;;;;;;2.22;2.00;;;10.20;82.80;;;;;;5112636;28;20057;-62
2022/01/07 06:19:38;;;;;;;2.03;1.77;;;10.20;82.80;;;;;;5095116;28;20077;-57
2022/01/07 06:22:04;;;;;;;2.28;1.95;;;10.10;82.80;;;;;;5113324;28;20127;-64
2022/01/07 06:24:30;;;;;;;2.55;2.10;;;10.20;82.80;;;;;;5096492;28;20087;-54
2022/01/07 06:26:56;;;;;;;2.15;1.95;;;10.20;82.80;;;;;;5113097;28;20484;-64
2022/01/07 06:29:22;;;;;;;2.90;1.90;;;10.30;82.90;;;;;;5112394;28;20048;-66
2022/01/07 06:31:48;;;;;;;2.28;1.58;;;10.20;82.80;;;;;;5112666;28;20046;-66
2022/01/07 06:34:13;;;;;;;1.83;1.73;;;10.30;82.90;;;;;;5112658;28;22088;-66
2022/01/07 06:36:39;;;;;;;2.22;2.00;;;10.30;82.90;;;;;;5112850;28;20044;-61
2022/01/07 06:39:05;;;;;;;2.20;1.70;;;10.20;82.80;;;;;;5112630;28;20039;-65
2022/01/07 06:41:31;;;;;;;1.80;1.67;;;10.30;82.90;;;;;;5112655;28;20059;-66
2022/01/07 06:43:57;;;;;;;2.15;1.90;;;10.30;82.90;;;;;;5112282;28;20082;-58
2022/01/07 06:46:23;;;;;;;1.90;1.70;;;10.20;82.80;;;;;;5111904;28;20075;-64
2022/01/07 06:48:48;;;;;;;2.35;1.80;;;10.20;82.80;;;;;;5112019;28;20429;-63
2022/01/07 06:51:14;;;;;;;1.95;1.75;;;10.20;82.80;;;;;;5112434;28;20074;-65
2022/01/07 06:53:40;;;;;;;1.95;1.70;;;10.30;82.90;;;;;;5112757;28;20453;-64
2022/01/07 06:56:05;;;;;;;1.85;1.70;;;10.20;82.80;;;;;;5112576;28;20085;-54
2022/01/07 06:58:31;;;;;;;2.10;1.90;;;10.20;82.80;;;;;;5112614;28;20043;-65
2022/01/07 07:00:57;;;;;;;1.75;1.65;;;10.30;82.90;;;;;;5112197;28;20046;-65
2022/01/07 07:03:22;;;;;;;1.98;1.77;;;10.20;82.80;;;;;;5113055;28;20036;-64
2022/01/07 07:05:49;;;;;;;2.38;1.73;;;10.30;82.90;;;;;;5112067;28;20381;-67
2022/01/07 07:08:14;;;;;;;1.90;1.70;;;10.20;82.80;;;;;;5112468;28;20046;-58
2022/01/07 07:10:40;;;;;;;1.85;1.75;;;10.30;82.90;;;;;;5112488;28;20039;-66
2022/01/07 07:13:06;;;;;;;2.03;1.83;;;10.20;82.90;;;;;;5112346;28;20048;-66
2022/01/07 07:15:32;;;;;;;2.78;1.90;;;10.20;82.80;;;;;;5114217;28;20038;-65
2022/01/07 07:17:58;;;;;;;1.52;1.42;;;10.20;82.80;;;;;;5115915;28;20113;-66
2022/01/07 07:20:23;;;;;;;2.55;1.85;;;10.20;82.80;;;;;;5116946;28;20071;-66
2022/01/07 07:22:49;;;;;;;2.08;1.75;;;10.20;82.80;;;;;;5116538;28;20036;-66
2022/01/07 07:25:15;;;;;;;2.58;1.73;;;10.30;82.90;;;;;;5115850;28;20043;-65
2022/01/07 07:27:41;;;;;;;2.55;2.03;;;10.20;82.80;;;;;;5132068;27;20036;-60
2022/01/07 07:30:09;;;;;;;2.10;1.90;;;10.30;82.90;;;;;;5116480;28;20069;-58
2022/01/07 07:32:36;;;;;;;1.95;1.80;;;10.20;82.80;;;;;;5115689;28;20498;-65
2022/01/07 07:37:50;;;;;;;2.08;1.70;;;10.20;82.80;;;;;;5072656;28;20053;-62
2022/01/07 07:40:16;;;;;;;2.10;1.77;;;10.20;82.80;;;;;;5070947;28;20049;-66
2022/01/07 07:42:43;;;;;;;2.10;1.90;;;10.30;82.90;;;;;;5066979;28;20049;-66
2022/01/07 07:45:12;;;;;;;2.00;1.90;;;10.30;83.00;;;;;;5053168;28;20156;-66
2022/01/07 07:47:38;;;;;;;2.17;1.80;;;10.20;82.90;;;;;;5055855;28;20044;-67
2022/01/07 07:50:04;;;;;;;2.10;1.90;;;10.20;82.90;;;;;;5070325;28;20057;-61
2022/01/07 07:52:30;;;;;;;2.35;1.75;;;10.20;82.90;;;;;;5071376;28;20056;-59
2022/01/07 07:54:55;;;;;;;2.13;1.92;;;10.20;82.90;;;;;;5069622;28;20052;-65
2022/01/07 07:57:21;;;;;;;1.90;1.67;;;10.20;82.90;;;;;;5054798;28;20045;-63
2022/01/07 07:59:46;;;;;;;2.88;1.80;;;10.20;82.90;;;;;;5066199;28;20370;-66
2022/01/07 08:02:13;;;;;;;1.85;1.63;;;10.30;82.90;;;;;;5071985;28;20060;-63
2022/01/07 08:04:38;;;;;;;2.42;1.98;;;10.30;82.90;;;;;;5072381;28;20450;-67
2022/01/07 08:07:04;;;;;;;2.90;1.92;;;10.20;82.90;;;;;;5072698;28;20052;-66
2022/01/07 08:09:37;;;;;;;1.95;1.55;;;10.20;82.80;;;;;;5056554;28;20837;-64
2022/01/07 08:12:17;;;;;;;2.08;1.88;;;10.20;82.80;;;;;;5052765;28;20049;-63
2022/01/07 08:17:27;;;;;;;1.85;1.70;;;10.20;82.90;;;;;;5094959;28;20115;-65
2022/01/07 08:19:52;;;;;;;3.13;2.10;;;10.10;82.90;;;;;;5094677;28;20123;-57
2022/01/07 08:22:18;;;;;;;1.95;1.67;;;10.20;82.90;;;;;;5095150;28;20365;-66
2022/01/07 08:24:44;;;;;;;2.10;1.90;;;10.20;82.90;;;;;;5105544;28;20082;-63
2022/01/07 08:27:10;;;;;;;2.03;1.80;;;10.20;82.90;;;;;;5114025;28;20051;-64
2022/01/07 08:29:38;;;;;;;2.30;2.10;;;10.20;82.90;;;;;;5114687;28;20475;-62
2022/01/07 08:34:56;;;;;;;2.13;1.92;;;10.20;82.90;;;;;;5115155;28;20040;-64
2022/01/07 08:37:27;;;;;;;2.22;1.80;;;10.20;82.90;;;;;;5096275;28;20119;-62
2022/01/07 08:39:54;;;;;;;2.38;1.88;;;10.20;82.90;;;;;;5115123;28;20054;-64
2022/01/07 08:42:22;;;;;;;1.88;1.70;;;10.20;82.90;;;;;;5114383;28;20040;-63
2022/01/07 08:44:48;;;;;;;2.65;2.08;;;10.20;82.90;;;;;;5114795;28;20055;-63
2022/01/07 08:47:14;;;;;;;2.38;2.15;;;10.20;82.90;;;;;;5114779;28;20036;-65
2022/01/07 08:49:41;;;;;;;2.03;1.80;;;10.20;82.90;;;;;;5115066;28;20460;-63
2022/01/07 08:52:06;;;;;;;1.95;1.83;;;10.20;82.90;;;;;;5114114;28;20484;-62
2022/01/07 08:54:32;;;;;;;2.38;1.98;;;10.20;82.90;;;;;;5114344;28;20048;-67
2022/01/07 08:56:57;;;;;;;2.10;1.90;;;10.20;82.90;;;;;;5114671;28;20391;-67
2022/01/07 08:59:23;;;;;;;2.30;1.80;;;10.20;82.90;;;;;;5114292;28;20499;-67
2022/01/07 09:01:49;;;;;;;2.80;1.95;;;10.20;82.90;;;;;;5114602;28;20042;-66
2022/01/07 09:04:15;;;;;;;2.13;1.92;;;10.20;82.90;;;;;;5113767;28;20083;-67
2022/01/07 09:06:40;;;;;;;2.83;2.03;;;10.20;82.90;;;;;;5114414;28;20042;-66
2022/01/07 09:09:06;;;;;;;3.67;1.95;;;10.20;82.90;;;;;;5097901;28;20568;-61
2022/01/07 09:11:32;;;;;;;2.78;2.10;;;10.20;82.90;;;;;;5096176;28;20047;-63
2022/01/07 09:13:58;;;;;;;2.08;1.90;;;10.20;82.90;;;;;;5094765;28;20089;-60
2022/01/07 09:16:26;;;;;;;2.10;2.00;;;10.20;82.90;;;;;;5113662;28;20480;-60
2022/01/07 09:18:51;;;;;;;2.15;1.95;;;10.20;82.90;;;;;;5112677;28;20051;-60
2022/01/07 09:21:20;;;;;;;2.40;2.20;;;10.20;82.90;;;;;;5112879;28;20081;-62
2022/01/07 09:23:46;;;;;;;2.42;2.10;;;10.20;82.90;;;;;;5111955;28;20047;-57
2022/01/07 09:26:13;;;;;;;2.72;2.30;;;10.20;82.90;;;;;;5113273;28;20051;-59
2022/01/07 09:28:39;;;;;;;3.00;1.90;;;10.20;82.90;;;;;;5112622;28;20483;-58
2022/01/07 09:31:05;;;;;;;2.38;1.92;;;10.20;82.90;;;;;;5113245;28;20143;-56
2022/01/07 09:33:31;;;;;;;2.30;2.10;;;10.20;82.90;;;;;;5112971;28;20554;-61
2022/01/07 09:35:57;;;;;;;2.30;2.00;;;10.20;82.90;;;;;;5094736;28;20523;-69
2022/01/07 09:38:22;;;;;;;2.60;2.40;;;10.20;82.90;;;;;;5112850;28;20043;-68
2022/01/07 09:40:51;;;;;;;2.40;2.20;;;10.20;82.90;;;;;;5112354;28;20040;-66
2022/01/07 09:43:17;;;;;;;2.25;1.98;;;10.20;82.90;;;;;;5109465;28;20126;-68
2022/01/07 09:45:43;;;;;;;2.78;1.90;;;10.20;82.90;;;;;;5108824;28;20147;-66
2022/01/07 09:48:09;;;;;;;2.30;2.10;;;10.20;82.90;;;;;;5109028;28;20039;-69
2022/01/07 09:50:36;;;;;;;2.30;2.10;;;10.20;82.90;;;;;;5109456;28;20139;-59
2022/01/07 09:53:05;;;;;;;3.05;2.08;;;10.30;83.00;;;;;;5108864;28;20051;-65
2022/01/07 09:55:30;;;;;;;2.60;2.05;;;10.20;82.90;;;;;;5108843;28;20046;-67
2022/01/07 09:57:56;;;;;;;2.92;2.30;;;10.20;82.90;;;;;;5108955;28;20039;-65
2022/01/07 10:00:22;;;;;;;3.85;2.30;;;10.20;82.90;;;;;;5124794;27;20488;-62
2022/01/07 10:03:08;;;;;;;2.42;2.10;;;10.20;82.90;;;;;;5108597;28;20100;-69
2022/01/07 10:06:00;;;;;;;2.58;2.38;;;10.20;82.80;;;;;;5108205;28;20443;-69
2022/01/07 10:08:30;;;;;;;2.38;2.00;;;10.30;82.90;;;;;;5104821;28;20138;-64
2022/01/07 10:11:19;;;;;;;3.67;2.53;;;10.20;82.90;;;;;;5108774;28;20107;-58
2022/01/07 10:13:50;;;;;;;2.88;2.50;;;10.20;82.90;;;;;;5108439;28;20043;-61
2022/01/07 10:16:23;;;;;;;2.88;2.10;;;10.20;82.90;;;;;;5108124;28;20396;-58
2022/01/07 10:18:49;;;;;;;2.30;2.05;;;10.20;82.90;;;;;;5089351;28;20483;-66
2022/01/07 10:21:17;;;;;;;2.30;2.10;;;10.20;82.90;;;;;;5090348;28;20072;-59
2022/01/07 10:23:46;;;;;;;2.28;2.00;;;10.20;82.90;;;;;;5107797;28;20058;-63
2022/01/07 10:26:15;;;;;;;1.90;1.80;;;10.30;83.00;;;;;;5108175;28;20444;-69
2022/01/07 10:28:42;;;;;;;2.55;2.35;;;10.20;82.90;;;;;;5107583;28;20544;-66
2022/01/07 10:31:09;;;;;;;2.35;1.95;;;10.20;82.90;;;;;;5107949;28;20086;-64
2022/01/07 10:33:40;;;;;;;3.17;2.17;;;10.20;82.90;;;;;;5089842;28;20601;-60
2022/01/07 10:36:06;;;;;;;2.25;2.05;;;10.20;82.90;;;;;;5107820;28;20096;-67
2022/01/07 10:38:32;;;;;;;3.13;2.08;;;10.20;83.00;;;;;;5108658;28;20043;-65
2022/01/07 10:41:01;;;;;;;2.03;1.85;;;10.20;82.90;;;;;;5108147;28;20566;-69
2022/01/07 10:43:35;;;;;;;1.95;1.80;;;10.20;82.90;;;;;;5108224;28;20513;-70
2022/01/07 10:46:24;;;;;;;2.67;2.20;;;10.20;82.90;;;;;;5108670;28;20051;-67
2022/01/07 10:48:54;;;;;;;3.05;2.10;;;10.20;82.90;;;;;;5091287;28;20484;-67
2022/01/07 10:51:29;;;;;;;3.22;1.85;;;10.20;82.90;;;;;;5097286;28;20044;-70
2022/01/07 10:53:57;;;;;;;2.20;2.00;;;10.20;82.90;;;;;;5116607;28;20039;-70
2022/01/07 10:56:32;;;;;;;1.90;1.70;;;10.20;82.90;;;;;;5098055;28;20048;-68
2022/01/07 10:59:11;;;;;;;1.88;1.63;;;10.20;82.90;;;;;;5115800;28;20044;-64
2022/01/07 11:01:42;;;;;;;2.10;1.60;;;10.20;82.90;;;;;;5115772;28;20484;-70
2022/01/07 11:04:10;;;;;;;1.80;1.70;;;10.20;82.90;;;;;;5115674;28;20086;-71
2022/01/07 11:06:38;;;;;;;1.75;1.65;;;10.20;82.90;;;;;;5115598;28;20071;-68
2022/01/07 11:09:07;;;;;;;2.63;1.67;;;10.20;82.90;;;;;;5115753;28;20552;-61
2022/01/07 11:11:33;;;;;;;1.73;1.60;;;10.20;82.90;;;;;;5098854;28;20059;-62
2022/01/07 11:14:06;;;;;;;1.80;1.70;;;10.20;82.90;;;;;;5121825;27;20497;-61
2022/01/07 11:16:32;;;;;;;1.70;1.60;;;10.20;82.90;;;;;;5136279;27;20047;-59
2022/01/07 11:18:59;;;;;;;2.45;1.67;;;10.20;82.90;;;;;;5122092;27;20044;-65
2022/01/07 11:21:25;;;;;;;2.03;1.88;;;10.20;82.90;;;;;;5115673;28;20044;-68
2022/01/07 11:23:50;;;;;;;2.28;1.70;;;10.30;82.90;;;;;;5115780;28;20146;-66
2022/01/07 11:26:17;;;;;;;2.03;1.50;;;10.20;82.90;;;;;;5100002;28;20396;-75
2022/01/07 11:29:00;;;;;;;7.40;2.20;;;10.20;82.90;;;;;;5094817;28;20051;-64
2022/01/07 11:31:27;;;;;;;2.03;1.83;;;10.20;81.30;;;;;;5095045;28;20028;-68
2022/01/07 11:34:18;;;;;;;3.70;1.90;;;10.10;82.60;;;;;;5095972;28;20043;-66
2022/01/07 11:36:44;;;;;;;5.80;1.85;;;10.10;82.10;;;;;;5106977;28;20047;-64
2022/01/07 11:39:10;;;;;;;2.33;2.00;;;10.10;82.30;;;;;;5115446;28;20043;-66
2022/01/07 11:41:47;;;;;;;3.47;2.22;;;10.10;82.30;;;;;;5097258;28;20043;-68
2022/01/07 11:44:29;;;;;;;1.65;1.55;;;10.10;82.30;;;;;;5115534;28;20149;-65
2022/01/07 11:47:24;;;;;;;2.25;1.75;;;10.10;82.30;;;;;;5113115;28;20043;-65
2022/01/07 11:50:05;;;;;;;2.95;2.00;;;10.20;82.40;;;;;;5110681;28;20066;-65
2022/01/07 11:52:37;;;;;;;3.30;2.00;;;10.10;82.40;;;;;;5115361;28;20047;-65
2022/01/07 11:55:30;;;;;;;2.40;1.70;;;10.00;82.30;;;;;;5115935;28;20043;-67
2022/01/07 11:57:57;;;;;;;2.17;1.90;;;10.20;82.50;;;;;;5112377;28;20139;-67
2022/01/07 12:00:48;;;;;;;3.40;2.00;;;10.20;82.50;;;;;;5115554;28;20039;-62
2022/01/07 12:03:28;;;;;;;2.00;1.70;;;10.20;82.50;;;;;;5115129;28;20125;-69
2022/01/07 12:05:53;;;;;;;2.20;1.98;;;10.20;82.50;;;;;;5115511;28;20653;-67
2022/01/07 12:08:19;;;;;;;2.25;1.75;;;10.20;82.60;;;;;;5113709;28;20138;-59
2022/01/07 12:10:45;;;;;;;2.00;1.80;;;10.20;82.50;;;;;;5097623;28;20044;-67
2022/01/07 12:13:11;;;;;;;3.08;1.90;;;10.20;82.50;;;;;;5115882;28;20123;-58
2022/01/07 12:15:39;;;;;;;1.98;1.77;;;10.20;82.60;;;;;;5115579;28;20502;-67
2022/01/07 12:18:11;;;;;;;1.95;1.80;;;10.20;82.60;;;;;;5112920;28;20055;-67
2022/01/07 12:20:50;;;;;;;2.08;1.63;;;10.30;82.60;;;;;;5114483;28;20131;-64
2022/01/07 12:23:20;;;;;;;3.05;1.73;;;10.20;82.50;;;;;;5115181;28;20122;-66
2022/01/07 12:25:53;;;;;;;1.98;1.70;;;10.10;82.60;;;;;;5097136;28;20130;-64
2022/01/07 12:28:20;;;;;;;1.50;1.40;;;10.20;82.60;;;;;;5113267;28;20475;-62
2022/01/07 12:30:47;;;;;;;4.25;1.70;;;10.20;82.60;;;;;;5114503;28;20043;-60
2022/01/07 12:33:13;;;;;;;1.80;1.50;;;10.20;82.60;;;;;;5115022;28;20066;-62
2022/01/07 12:35:41;;;;;;;1.77;1.30;;;10.20;82.90;;;;;;5114849;28;20515;-59
2022/01/07 12:38:24;;;;;;;2.63;1.50;;;10.20;82.60;;;;;;5115602;28;20403;-67
2022/01/07 12:40:52;;;;;;;2.05;1.75;;;10.20;82.60;;;;;;5114470;28;20108;-63
2022/01/07 12:43:21;;;;;;;2.53;1.65;;;10.20;82.60;;;;;;5112910;27;20438;-66
2022/01/07 12:46:06;;;;;;;2.65;1.63;;;10.20;82.60;;;;;;5114702;28;20054;-60
2022/01/07 12:48:39;;;;;;;2.00;1.60;;;10.20;82.60;;;;;;5114106;28;20050;-58
2022/01/07 12:51:06;;;;;;;2.10;1.80;;;10.20;82.60;;;;;;5094180;28;20296;-57
2022/01/07 12:53:32;;;;;;;1.88;1.60;;;10.20;82.60;;;;;;5093894;28;20061;-65
2022/01/07 12:56:20;;;;;;;2.22;1.90;;;10.20;82.60;;;;;;5104615;28;20042;-62
2022/01/07 12:58:45;;;;;;;2.80;1.63;;;10.30;82.60;;;;;;5114154;28;20048;-65
2022/01/07 13:01:31;;;;;;;1.95;1.40;;;10.20;82.60;;;;;;5106159;28;20449;-58